Time;durP1;ratioP1;P1;durP2;ratioP2;P2;SDS_P1;SDS_P2;PMS_P1;PMS_P2;Temp;Humidity;BMP_temperature;BMP_pressure;BME280_temperature;BME280_humidity;BME280_pressure;Samples;Min_cycle;Max_cycle;Signal;HPM_P1;HPM_P2
2023/04/16 00:00:02;;;;;;;;;9.67;8.33;;;;;11.10;51.32;101949.25;5097677;27;45421;-70
2023/04/16 00:02:27;;;;;;;;;10.67;9.33;;;;;11.05;51.48;101946.09;5098033;27;45490;-72
2023/04/16 00:04:53;;;;;;;;;11.00;6.67;;;;;11.05;51.21;101942.59;5098677;27;45737;-70
2023/04/16 00:07:18;;;;;;;;;8.33;8.00;;;;;11.02;51.34;101950.81;5097836;27;45413;-69
2023/04/16 00:09:43;;;;;;;;;14.33;12.00;;;;;10.98;51.79;101955.47;5097781;27;45435;-69
2023/04/16 00:12:09;;;;;;;;;10.33;10.00;;;;;10.95;52.36;101943.28;5097813;27;45328;-70
2023/04/16 00:14:35;;;;;;;;;8.67;8.67;;;;;10.80;51.47;101924.97;5097529;27;45627;-71
2023/04/16 00:17:00;;;;;;;;;12.33;10.00;;;;;11.01;51.94;101959.72;5097463;27;45602;-71
2023/04/16 00:19:25;;;;;;;;;8.00;8.00;;;;;10.60;52.05;101886.56;5097616;27;45519;-72
2023/04/16 00:21:51;;;;;;;;;9.00;7.00;;;;;10.95;52.36;101963.72;5097751;27;45319;-72
2023/04/16 00:24:16;;;;;;;;;15.33;11.00;;;;;10.50;52.45;101890.91;5097189;27;46672;-72
2023/04/16 00:26:45;;;;;;;;;12.00;10.00;;;;;10.10;52.54;101818.59;5097342;27;45430;-70
2023/04/16 00:29:11;;;;;;;;;10.67;9.67;;;;;10.54;52.67;101908.31;5097391;27;45446;-71
2023/04/16 00:31:36;;;;;;;;;9.33;9.00;;;;;10.81;52.30;101958.56;5079348;27;45446;-71
2023/04/16 00:34:02;;;;;;;;;11.00;9.00;;;;;10.65;52.51;101942.94;5097049;27;45466;-71
2023/04/16 00:36:27;;;;;;;;;11.00;8.00;;;;;10.02;52.91;101828.00;5097271;27;45256;-70
2023/04/16 00:38:54;;;;;;;;;9.67;7.33;;;;;10.80;52.60;101962.19;5097241;27;45274;-71
2023/04/16 00:41:20;;;;;;;;;8.00;8.00;;;;;10.72;53.11;101945.97;5097743;27;45486;-71
2023/04/16 00:43:45;;;;;;;;;11.33;9.33;;;;;10.69;52.34;101954.19;5096862;27;45457;-70
2023/04/16 00:46:11;;;;;;;;;9.00;7.33;;;;;10.65;52.79;101969.53;5100304;27;45388;-71
2023/04/16 00:48:38;;;;;;;;;8.00;7.67;;;;;10.60;52.68;101955.72;5100897;27;45304;-71
2023/04/16 00:51:05;;;;;;;;;8.67;8.67;;;;;10.56;53.35;101947.13;5100869;27;45540;-70
2023/04/16 00:53:31;;;;;;;;;7.33;7.33;;;;;10.13;53.35;101879.47;5100269;27;45718;-71
2023/04/16 00:55:57;;;;;;;;;10.67;8.00;;;;;10.17;53.04;101883.59;5100355;27;45227;-70
2023/04/16 00:58:23;;;;;;;;;7.33;7.33;;;;;10.52;53.45;101942.16;5101076;27;45477;-70
2023/04/16 01:00:48;;;;;;;;;8.00;8.00;;;;;10.31;53.41;101923.31;5100763;27;45889;-71
2023/04/16 01:03:13;;;;;;;;;6.00;5.33;;;;;10.52;53.42;101952.78;5100210;27;46299;-71
2023/04/16 01:05:39;;;;;;;;;7.00;7.00;;;;;10.48;53.26;101946.88;5100749;27;45301;-71
2023/04/16 01:08:05;;;;;;;;;9.33;9.33;;;;;10.10;53.45;101887.69;5100809;27;45347;-72
2023/04/16 01:10:30;;;;;;;;;9.00;9.00;;;;;10.43;53.36;101949.03;5100629;27;45473;-70
2023/04/16 01:12:55;;;;;;;;;9.33;7.00;;;;;8.40;53.56;101621.31;5100066;27;45367;-70
2023/04/16 01:15:21;;;;;;;;;9.00;7.33;;;;;9.52;53.64;101802.47;5081299;27;47676;-71
2023/04/16 01:17:46;;;;;;;;;11.33;8.00;;;;;10.31;53.26;101950.75;5100314;27;45802;-70
2023/04/16 01:20:12;;;;;;;;;9.33;8.33;;;;;10.22;53.73;101946.13;5100317;27;45520;-71
2023/04/16 01:22:37;;;;;;;;;11.00;8.67;;;;;10.26;53.69;101944.09;5099802;27;45591;-70
2023/04/16 01:25:02;;;;;;;;;10.33;7.00;;;;;10.07;53.65;101913.50;5100008;27;45400;-71
2023/04/16 01:27:28;;;;;;;;;8.00;8.00;;;;;10.16;53.71;101935.06;5081870;27;45402;-71
2023/04/16 01:29:55;;;;;;;;;9.00;8.33;;;;;10.19;53.80;101946.28;5081990;27;45431;-71
2023/04/16 01:32:20;;;;;;;;;10.00;8.67;;;;;9.50;53.68;101838.06;5081294;27;48683;-71
2023/04/16 01:34:46;;;;;;;;;11.00;8.00;;;;;10.04;53.96;101927.03;5081197;27;45343;-69
2023/04/16 01:37:11;;;;;;;;;11.00;8.00;;;;;9.35;53.96;101806.34;5099942;27;45239;-70
2023/04/16 01:39:36;;;;;;;;;11.00;10.00;;;;;9.89;53.82;101890.94;5083970;27;45279;-71
2023/04/16 01:42:02;;;;;;;;;12.33;8.00;;;;;10.16;54.28;101951.00;5083305;27;48174;-70
2023/04/16 01:44:27;;;;;;;;;9.00;9.00;;;;;10.02;54.15;101944.91;5081472;27;45446;-70
2023/04/16 01:46:53;;;;;;;;;11.67;8.33;;;;;9.80;54.29;101918.16;5081424;27;45485;-69
2023/04/16 01:49:18;;;;;;;;;6.33;3.00;;;;;10.00;54.35;101956.56;5100185;27;45319;-71
2023/04/16 01:51:44;;;;;;;;;9.33;7.00;;;;;9.87;54.55;101951.31;5099598;27;45541;-70
2023/04/16 01:54:09;;;;;;;;;7.33;7.33;;;;;9.92;55.16;101954.47;5080892;27;45294;-71
2023/04/16 01:56:35;;;;;;;;;10.33;9.33;;;;;9.65;54.65;101900.69;5081269;27;45367;-69
2023/04/16 01:59:00;;;;;;;;;7.67;7.67;;;;;9.88;54.62;101947.69;5099861;27;45239;-70
2023/04/16 02:01:25;;;;;;;;;9.67;9.67;;;;;8.81;54.95;101763.38;5099980;27;45582;-69
2023/04/16 02:03:51;;;;;;;;;9.00;9.00;;;;;9.91;54.62;101955.44;5081215;27;45883;-69
2023/04/16 02:06:17;;;;;;;;;6.00;6.00;;;;;9.95;54.99;101970.19;5081298;27;45457;-71
2023/04/16 02:08:42;;;;;;;;;9.00;8.00;;;;;9.53;55.06;101894.44;5081208;27;45307;-70
2023/04/16 02:11:07;;;;;;;;;9.00;9.00;;;;;9.95;55.33;101978.16;5080685;27;47481;-70
2023/04/16 02:13:33;;;;;;;;;8.00;8.00;;;;;9.96;55.30;101965.72;5099344;27;45485;-70
2023/04/16 02:15:58;;;;;;;;;12.00;8.00;;;;;9.40;55.60;101878.50;5099152;27;45414;-70
2023/04/16 02:18:24;;;;;;;;;15.67;10.00;;;;;9.95;55.92;101980.81;5099327;27;45394;-72
2023/04/16 02:20:49;;;;;;;;;10.00;10.00;;;;;8.91;55.86;101806.00;5099258;27;46617;-70
2023/04/16 02:23:17;;;;;;;;;11.33;10.33;;;;;9.97;55.95;101989.53;5098867;27;45360;-71
2023/04/16 02:25:45;;;;;;;;;9.33;9.00;;;;;9.94;56.18;101984.44;5080799;27;45386;-70
2023/04/16 02:28:13;;;;;;;;;11.33;9.67;;;;;9.95;56.16;101978.16;5099469;27;45516;-71
2023/04/16 02:30:39;;;;;;;;;12.00;10.67;;;;;9.94;55.72;101972.94;5098683;27;45636;-72
2023/04/16 02:33:06;;;;;;;;;12.00;10.33;;;;;9.86;55.78;101964.69;5098948;27;45453;-70
2023/04/16 02:35:36;;;;;;;;;10.67;8.67;;;;;9.53;56.06;101931.59;5080491;27;45270;-71
2023/04/16 02:38:03;;;;;;;;;13.67;10.00;;;;;9.78;56.47;101981.16;5098954;27;45454;-71
2023/04/16 02:40:28;;;;;;;;;11.00;7.33;;;;;9.78;56.88;101989.13;5098393;27;45831;-72
2023/04/16 02:42:54;;;;;;;;;11.00;10.33;;;;;9.77;56.79;101971.50;5098664;27;46016;-71
2023/04/16 02:45:20;;;;;;;;;15.00;12.67;;;;;9.44;56.82;101922.50;5098845;27;45304;-70
2023/04/16 02:47:47;;;;;;;;;12.67;10.67;;;;;9.69;56.87;101963.22;5098797;27;45539;-69
2023/04/16 02:50:12;;;;;;;;;11.00;9.67;;;;;9.80;57.17;101994.31;5098552;27;45817;-72
2023/04/16 02:52:38;;;;;;;;;12.67;10.33;;;;;9.49;57.57;101926.63;5098537;27;45213;-70
2023/04/16 02:55:04;;;;;;;;;11.33;10.67;;;;;9.67;57.54;101973.13;5098703;27;45819;-71
2023/04/16 02:57:31;;;;;;;;;13.67;12.67;;;;;9.57;57.95;101961.44;5080541;27;45640;-71
2023/04/16 02:59:56;;;;;;;;;11.00;10.00;;;;;9.31;58.22;101918.13;5098293;27;46786;-70
2023/04/16 03:02:21;;;;;;;;;12.33;10.33;;;;;9.38;57.81;101935.31;5098084;27;58241;-70
2023/04/16 03:04:47;;;;;;;;;8.00;8.00;;;;;9.43;58.43;101944.69;5080205;27;45303;-71
2023/04/16 03:07:12;;;;;;;;;9.33;8.33;;;;;9.62;58.19;101993.84;5098440;27;45517;-71
2023/04/16 03:09:38;;;;;;;;;10.00;9.00;;;;;9.34;58.11;101923.22;5100136;27;46445;-70
2023/04/16 03:12:03;;;;;;;;;14.33;12.00;;;;;9.60;57.84;101974.47;5098423;27;45246;-70
2023/04/16 03:14:29;;;;;;;;;15.00;11.67;;;;;9.56;58.34;101963.25;5098250;27;45487;-71
2023/04/16 03:16:55;;;;;;;;;13.33;10.67;;;;;8.67;58.32;101825.31;5080252;27;45337;-71
2023/04/16 03:19:20;;;;;;;;;11.00;9.67;;;;;9.52;58.16;101982.16;5079461;27;45521;-72
2023/04/16 03:21:46;;;;;;;;;12.00;10.00;;;;;9.45;58.63;101963.16;5098291;27;45529;-70
2023/04/16 03:24:11;;;;;;;;;11.33;10.00;;;;;9.39;58.70;101960.91;5079803;27;45459;-71
2023/04/16 03:26:36;;;;;;;;;13.67;11.00;;;;;9.38;57.92;101954.75;5100034;27;45291;-69
2023/04/16 03:29:02;;;;;;;;;11.00;10.33;;;;;9.45;58.53;101966.66;5081269;27;47746;-70
2023/04/16 03:31:27;;;;;;;;;10.33;9.00;;;;;9.33;58.42;101948.06;5079949;27;46151;-70
2023/04/16 03:33:53;;;;;;;;;9.33;9.33;;;;;9.51;58.28;101969.84;5079669;27;45272;-71
2023/04/16 03:36:18;;;;;;;;;8.67;8.00;;;;;9.55;58.40;101990.75;5098242;27;45336;-70
2023/04/16 03:38:44;;;;;;;;;10.00;10.00;;;;;8.51;58.50;101808.75;5097556;27;45953;-71
2023/04/16 03:41:09;;;;;;;;;9.33;9.33;;;;;9.49;58.47;101983.22;5097808;27;45240;-70
2023/04/16 03:43:34;;;;;;;;;9.67;8.67;;;;;9.37;58.35;101961.00;5097800;27;45245;-71
2023/04/16 03:46:00;;;;;;;;;9.33;9.33;;;;;9.45;59.07;101973.78;5097901;27;45207;-71
2023/04/16 03:48:25;;;;;;;;;13.00;11.33;;;;;9.17;58.54;101939.47;5079204;27;47127;-70
2023/04/16 03:50:50;;;;;;;;;11.67;10.00;;;;;8.64;58.56;101840.59;5079837;27;45348;-72
2023/04/16 03:53:16;;;;;;;;;6.00;6.00;;;;;8.58;58.65;101831.22;5079323;27;45605;-69
2023/04/16 03:55:41;;;;;;;;;10.67;8.67;;;;;8.99;58.92;101915.03;5079296;27;45380;-71
2023/04/16 03:58:07;;;;;;;;;10.33;8.33;;;;;9.38;58.74;101978.63;5079326;27;48583;-72
2023/04/16 04:00:32;;;;;;;;;12.33;9.00;;;;;9.03;58.83;101916.56;5097640;27;45349;-72
2023/04/16 04:02:57;;;;;;;;;15.00;13.33;;;;;9.42;58.77;101977.50;5097791;27;45305;-70
2023/04/16 04:05:23;;;;;;;;;13.00;10.33;;;;;9.42;58.58;101993.41;5098052;27;45325;-70
2023/04/16 04:07:48;;;;;;;;;12.33;11.67;;;;;9.36;58.47;101988.50;5079523;27;48366;-70
2023/04/16 04:10:15;;;;;;;;;10.00;9.00;;;;;8.19;58.55;101818.81;5080170;27;46171;-70
2023/04/16 04:12:40;;;;;;;;;8.00;8.00;;;;;9.16;58.75;101967.81;5079462;27;45420;-71
2023/04/16 04:15:06;;;;;;;;;10.33;10.33;;;;;9.08;58.58;101956.88;5097732;27;45404;-71
2023/04/16 04:17:31;;;;;;;;;10.67;9.33;;;;;8.76;58.92;101920.13;5097429;27;46605;-72
2023/04/16 04:19:56;;;;;;;;;11.67;10.67;;;;;9.21;58.95;101994.91;5098817;27;49719;-72
2023/04/16 04:22:22;;;;;;;;;16.67;16.33;;;;;8.79;59.21;101941.13;5101024;27;45207;-72
2023/04/16 04:24:47;;;;;;;;;15.00;13.00;;;;;9.18;59.58;101999.53;5101265;27;45343;-70
2023/04/16 04:27:13;;;;;;;;;17.00;15.67;;;;;8.52;62.18;101927.91;5101270;27;45525;-71
2023/04/16 04:29:38;;;;;;;;;16.00;16.00;;;;;8.77;62.65;102005.81;5100884;27;45188;-70
2023/04/16 04:32:04;;;;;;;;;19.33;17.00;;;;;8.69;63.18;102006.34;5101040;27;45553;-70
2023/04/16 04:34:29;;;;;;;;;16.00;16.00;;;;;8.65;63.84;101996.88;5082782;27;45550;-71
2023/04/16 04:36:54;;;;;;;;;21.67;17.67;;;;;8.38;64.51;101980.13;5100486;27;53040;-71
2023/04/16 04:39:20;;;;;;;;;20.67;20.00;;;;;8.41;64.80;101993.16;5081966;27;45498;-71
2023/04/16 04:41:46;;;;;;;;;23.33;21.67;;;;;8.44;65.21;102007.09;5101604;27;45489;-72
2023/04/16 04:44:11;;;;;;;;;17.67;16.00;;;;;8.08;65.43;101962.59;5083305;27;45463;-70
2023/04/16 04:46:37;;;;;;;;;23.00;23.00;;;;;8.36;65.38;102012.00;5100064;27;45595;-71
2023/04/16 04:49:02;;;;;;;;;28.67;26.00;;;;;8.27;65.88;102001.13;5082304;27;45323;-71
2023/04/16 04:51:28;;;;;;;;;24.67;22.00;;;;;8.28;66.71;102027.53;5100684;27;45368;-70
2023/04/16 04:53:53;;;;;;;;;28.67;25.33;;;;;7.99;66.80;101997.56;5081648;27;45496;-71
2023/04/16 04:56:19;;;;;;;;;26.00;25.00;;;;;7.74;67.55;101960.34;5081222;27;70444;-71
2023/04/16 04:58:44;;;;;;;;;30.33;27.00;;;;;8.19;66.80;102028.09;5100182;27;45303;-70
2023/04/16 05:01:10;;;;;;;;;27.33;24.00;;;;;7.34;67.25;101899.31;5081945;27;45240;-70
2023/04/16 05:03:35;;;;;;;;;30.00;29.00;;;;;8.02;67.04;102023.91;5100600;27;45482;-70
2023/04/16 05:06:01;;;;;;;;;31.00;29.33;;;;;7.89;67.71;102025.59;5100123;27;46548;-72
2023/04/16 05:08:26;;;;;;;;;37.33;32.67;;;;;7.96;68.08;102028.69;5100068;27;45243;-70
2023/04/16 05:10:51;;;;;;;;;24.00;23.00;;;;;8.01;67.79;102029.25;5083054;27;45505;-72
2023/04/16 05:13:16;;;;;;;;;34.33;30.67;;;;;8.04;67.35;102037.03;5102647;27;45606;-70
2023/04/16 05:15:43;;;;;;;;;35.67;31.00;;;;;7.58;67.73;101963.09;5084835;27;47667;-70
2023/04/16 05:18:09;;;;;;;;;29.00;27.67;;;;;7.67;67.75;101981.06;5100859;27;45745;-71
2023/04/16 05:20:35;;;;;;;;;34.33;29.00;;;;;7.70;67.74;101977.38;5100111;27;45267;-71
2023/04/16 05:23:01;;;;;;;;;36.67;30.33;;;;;8.12;67.93;102046.19;5100049;27;45474;-73
2023/04/16 05:25:26;;;;;;;;;36.33;31.67;;;;;8.09;67.88;102041.09;5099478;27;60024;-70
2023/04/16 05:27:51;;;;;;;;;32.67;26.67;;;;;7.80;67.85;101984.63;5100006;27;45475;-71
2023/04/16 05:30:17;;;;;;;;;33.67;27.33;;;;;8.14;67.83;102033.69;5099694;27;45528;-71
2023/04/16 05:32:42;;;;;;;;;33.00;25.67;;;;;7.89;68.32;102018.50;5100227;27;45299;-71
2023/04/16 05:35:08;;;;;;;;;31.67;29.33;;;;;8.17;67.61;102048.53;5099640;27;45621;-71
2023/04/16 05:37:34;;;;;;;;;37.33;32.67;;;;;8.34;67.34;102031.63;5099614;27;45564;-72
2023/04/16 05:39:59;;;;;;;;;36.33;33.00;;;;;7.06;66.97;101809.44;5099916;27;45323;-71
2023/04/16 05:42:24;;;;;;;;;29.67;27.00;;;;;8.72;66.02;102053.84;5100041;27;45391;-72
2023/04/16 05:44:50;;;;;;;;;38.67;34.67;;;;;8.76;66.15;102050.03;5099638;27;45716;-71
2023/04/16 05:47:16;;;;;;;;;33.00;30.67;;;;;8.54;66.00;102009.97;5099540;27;45398;-70
2023/04/16 05:49:41;;;;;;;;;40.33;32.33;;;;;8.51;66.07;101986.31;5099502;27;45466;-71
2023/04/16 05:52:06;;;;;;;;;35.33;33.00;;;;;9.07;65.63;102077.22;5099827;27;45228;-71
2023/04/16 05:54:32;;;;;;;;;39.00;34.67;;;;;9.01;64.93;102049.28;5080500;27;45396;-71
2023/04/16 05:56:58;;;;;;;;;40.67;32.67;;;;;9.05;65.04;102021.59;5099342;27;45163;-72
2023/04/16 05:59:23;;;;;;;;;41.67;30.67;;;;;9.44;64.60;102065.84;5099505;27;45652;-71
2023/04/16 06:01:49;;;;;;;;;39.00;31.67;;;;;9.35;64.25;102053.16;5081243;27;45420;-70
2023/04/16 06:04:14;;;;;;;;;40.00;34.00;;;;;8.90;64.40;101966.06;5098542;27;64853;-71
2023/04/16 06:06:39;;;;;;;;;36.00;32.67;;;;;9.53;64.47;102066.16;5099141;27;45523;-72
2023/04/16 06:09:05;;;;;;;;;41.00;34.67;;;;;9.41;63.94;102033.31;5099104;27;45269;-71
2023/04/16 06:11:30;;;;;;;;;36.33;33.67;;;;;9.55;64.11;102059.78;5082348;27;45320;-72
2023/04/16 06:13:55;;;;;;;;;41.67;35.00;;;;;9.62;63.95;102073.50;5078850;27;46346;-72
2023/04/16 06:16:21;;;;;;;;;32.00;27.33;;;;;9.57;63.77;102047.25;5071744;28;57530;-71
2023/04/16 06:18:46;;;;;;;;;40.00;34.33;;;;;9.68;63.60;102067.75;5077946;27;50841;-71
2023/04/16 06:21:12;;;;;;;;;39.33;34.00;;;;;8.79;62.72;101876.63;5078422;27;45273;-70
2023/04/16 06:23:37;;;;;;;;;44.67;34.33;;;;;9.65;62.71;102012.22;5078189;27;45612;-70
2023/04/16 06:26:03;;;;;;;;;35.67;32.00;;;;;9.86;62.99;102050.53;5094586;27;45311;-72
2023/04/16 06:28:29;;;;;;;;;44.33;37.00;;;;;9.91;62.97;102087.41;5078494;27;45323;-71
2023/04/16 06:30:54;;;;;;;;;44.67;36.67;;;;;10.21;62.24;102073.78;5078621;28;45416;-70
2023/04/16 06:33:20;;;;;;;;;36.67;32.33;;;;;10.17;62.46;102049.22;5078064;27;45589;-73
2023/04/16 06:35:45;;;;;;;;;44.00;34.33;;;;;10.29;60.92;101997.03;5078066;28;45422;-71
2023/04/16 06:38:11;;;;;;;;;45.33;35.00;;;;;10.80;59.88;102074.78;5081343;27;45550;-71
2023/04/16 06:40:36;;;;;;;;;32.33;28.33;;;;;11.18;59.21;102085.25;5080616;27;45653;-71
2023/04/16 06:43:02;;;;;;;;;34.67;33.00;;;;;11.42;58.81;102050.59;5088704;27;46527;-73
2023/04/16 06:45:27;;;;;;;;;30.00;28.00;;;;;11.70;57.21;102048.47;5077764;28;45741;-72
2023/04/16 06:47:53;;;;;;;;;36.33;31.33;;;;;12.37;55.79;102059.97;5062919;28;47307;-71
2023/04/16 06:50:18;;;;;;;;;42.67;34.00;;;;;12.56;54.22;102031.81;5078083;27;45473;-69
2023/04/16 06:52:43;;;;;;;;;33.33;28.33;;;;;13.10;53.08;102029.91;5077924;28;46541;-71
2023/04/16 06:55:09;;;;;;;;;39.00;31.00;;;;;13.95;51.33;102060.97;5080359;27;45186;-71
2023/04/16 06:57:35;;;;;;;;;36.67;33.33;;;;;14.02;50.18;102072.84;5076346;27;45496;-71
2023/04/16 07:00:00;;;;;;;;;38.67;34.33;;;;;12.46;50.55;101850.38;5079070;28;45255;-72
2023/04/16 07:02:26;;;;;;;;;35.67;31.67;;;;;13.59;50.39;102032.94;5078318;27;46087;-72
2023/04/16 07:04:51;;;;;;;;;35.00;31.33;;;;;13.90;49.83;102080.09;5060300;28;46469;-71
2023/04/16 07:07:17;;;;;;;;;34.00;32.00;;;;;13.72;50.44;102054.13;5078192;27;45541;-71
2023/04/16 07:09:42;;;;;;;;;33.33;31.00;;;;;14.00;49.81;102075.63;5059828;28;45362;-71
2023/04/16 07:12:07;;;;;;;;;36.67;33.00;;;;;13.65;50.04;102081.38;5059818;28;62618;-72
2023/04/16 07:14:33;;;;;;;;;33.67;29.33;;;;;13.72;50.63;102062.97;5078788;28;45396;-71
2023/04/16 07:16:58;;;;;;;;;32.33;31.33;;;;;14.30;49.19;102076.59;5077671;27;45332;-71
2023/04/16 07:19:23;;;;;;;;;29.00;28.33;;;;;15.00;48.01;102075.63;5077646;27;45677;-72
2023/04/16 07:21:49;;;;;;;;;30.33;30.00;;;;;15.57;45.77;102049.78;5059748;28;47367;-71
2023/04/16 07:24:14;;;;;;;;;37.33;34.33;;;;;16.23;44.86;102078.41;5078259;28;45299;-72
2023/04/16 07:26:40;;;;;;;;;38.67;34.00;;;;;16.47;43.77;102043.78;5077771;28;45532;-72
2023/04/16 07:29:05;;;;;;;;;31.33;31.00;;;;;16.75;43.03;102060.72;5077756;28;45473;-71
2023/04/16 07:31:31;;;;;;;;;34.67;30.67;;;;;17.05;42.74;102081.03;5059146;28;47424;-69
2023/04/16 07:33:57;;;;;;;;;32.67;30.33;;;;;17.34;41.58;102068.16;5059139;27;45341;-71
2023/04/16 07:36:22;;;;;;;;;34.33;31.00;;;;;17.47;41.82;102080.34;5077474;27;45253;-70
2023/04/16 07:38:47;;;;;;;;;27.33;27.33;;;;;17.54;41.63;102073.34;5077629;28;45530;-73
2023/04/16 07:41:13;;;;;;;;;24.00;22.00;;;;;17.82;40.69;102080.31;5077372;27;45895;-74
2023/04/16 07:43:38;;;;;;;;;37.33;31.33;;;;;18.05;40.90;102077.06;5077267;28;45633;-71
2023/04/16 07:46:04;;;;;;;;;39.33;30.00;;;;;17.85;39.71;102071.91;5076842;28;46543;-71
2023/04/16 07:48:29;;;;;;;;;29.33;29.00;;;;;17.28;40.49;102058.03;5077337;28;45449;-70
2023/04/16 07:50:55;;;;;;;;;36.00;32.33;;;;;17.40;40.82;102071.22;5076997;27;45486;-72
2023/04/16 07:53:20;;;;;;;;;32.00;32.00;;;;;16.04;41.01;101916.53;5059851;28;45202;-73
2023/04/16 07:55:45;;;;;;;;;32.00;28.33;;;;;17.00;41.39;102077.91;5083946;27;45379;-73
2023/04/16 07:58:11;;;;;;;;;36.00;32.00;;;;;16.89;41.40;101986.84;5084282;27;45220;-74
2023/04/16 08:00:36;;;;;;;;;29.00;27.67;;;;;17.52;40.39;102076.19;5083824;27;45765;-72
2023/04/16 08:03:02;;;;;;;;;35.67;29.33;;;;;17.78;39.45;102078.06;5083830;27;45454;-72
2023/04/16 08:05:28;;;;;;;;;27.00;25.00;;;;;17.73;39.85;102094.69;5065887;28;45324;-72
2023/04/16 08:07:53;;;;;;;;;29.33;27.00;;;;;18.31;39.44;102099.38;5083743;27;45292;-72
2023/04/16 08:10:18;;;;;;;;;32.33;30.00;;;;;18.96;37.63;102102.31;5083660;27;45512;-72
2023/04/16 08:12:44;;;;;;;;;27.00;24.33;;;;;19.58;36.53;102083.81;5065603;28;45375;-73
2023/04/16 08:15:09;;;;;;;;;30.67;27.00;;;;;19.86;35.81;102054.59;5084654;28;45537;-74
2023/04/16 08:17:36;;;;;;;;;29.67;26.00;;;;;20.38;35.15;102088.31;5065617;28;45375;-74
2023/04/16 08:20:01;;;;;;;;;30.33;28.67;;;;;20.43;34.52;102094.94;5083433;27;47169;-73
2023/04/16 08:22:27;;;;;;;;;32.00;29.00;;;;;20.57;34.76;102077.13;5083233;27;45523;-74
2023/04/16 08:24:52;;;;;;;;;30.00;26.67;;;;;20.53;34.08;102036.09;5083830;28;45222;-74
2023/04/16 08:27:17;;;;;;;;;22.00;21.00;;;;;20.59;33.66;102075.91;5083864;27;45238;-75
2023/04/16 08:29:43;;;;;;;;;22.33;21.67;;;;;20.32;32.91;102036.69;5064910;28;45545;-75
2023/04/16 08:32:09;;;;;;;;;28.33;25.00;;;;;20.61;32.71;102083.84;5083554;28;45317;-73
2023/04/16 08:34:35;;;;;;;;;23.00;22.00;;;;;20.56;32.82;102072.72;5083525;27;45433;-74
2023/04/16 08:37:00;;;;;;;;;31.67;29.00;;;;;20.92;32.23;102090.09;5083717;28;45299;-73
2023/04/16 08:39:26;;;;;;;;;27.67;26.00;;;;;20.51;32.87;102056.22;5082902;28;46142;-72
2023/04/16 08:41:53;;;;;;;;;30.67;28.00;;;;;20.83;32.45;102096.56;5083296;28;45364;-74
2023/04/16 08:44:27;;;;;;;;;22.67;21.00;;;;;20.70;32.62;102104.41;5083287;27;45375;-74
2023/04/16 08:46:57;;;;;;;;;26.33;25.67;;;;;20.72;32.72;102042.91;5065888;27;45295;-72
2023/04/16 08:49:26;;;;;;;;;22.33;19.33;;;;;19.72;32.82;101956.31;5086788;28;45951;-75
2023/04/16 08:51:54;;;;;;;;;27.00;21.00;;;;;20.65;33.08;102066.28;5063462;28;45776;-77
2023/04/16 08:54:45;;;;;;;;;24.33;19.67;;;;;20.64;32.55;102097.03;5062390;28;45453;-73
2023/04/16 08:57:14;;;;;;;;;25.33;22.33;;;;;20.69;31.99;102062.19;5010304;27;45746;-74
2023/04/16 08:59:46;;;;;;;;;23.67;23.00;;;;;20.53;32.43;102003.69;5044628;28;48351;-73
2023/04/16 09:02:12;;;;;;;;;33.67;28.67;;;;;20.91;31.85;101984.81;5078807;27;45583;-71
2023/04/16 09:04:38;;;;;;;;;20.67;19.67;;;;;21.19;30.58;101979.66;5047045;28;45335;-74
2023/04/16 09:07:07;;;;;;;;;23.67;22.67;;;;;21.31;30.30;102035.03;5079108;28;45522;-73
2023/04/16 09:09:32;;;;;;;;;14.67;13.33;;;;;21.50;30.34;102112.16;5079014;27;46271;-75
2023/04/16 09:11:58;;;;;;;;;17.67;17.67;;;;;21.59;29.95;102058.78;5079157;28;45328;-74
2023/04/16 09:14:24;;;;;;;;;24.00;20.00;;;;;21.68;30.01;102095.59;5061029;27;45329;-73
2023/04/16 09:16:53;;;;;;;;;20.67;19.00;;;;;21.89;29.48;102108.41;5079253;28;45550;-73
2023/04/16 09:19:18;;;;;;;;;17.67;17.33;;;;;22.64;28.88;102086.53;5060715;28;46552;-75
2023/04/16 09:21:46;;;;;;;;;17.00;15.33;;;;;23.27;27.65;102106.59;5057287;28;46767;-72
2023/04/16 09:24:12;;;;;;;;;20.67;17.33;;;;;24.13;26.57;102101.84;5058683;28;45355;-73
2023/04/16 09:26:37;;;;;;;;;20.67;20.67;;;;;24.78;25.62;102076.00;5069442;27;45426;-74
2023/04/16 09:29:03;;;;;;;;;19.00;18.00;;;;;25.67;24.52;102095.59;5057242;28;45534;-77
2023/04/16 09:31:28;;;;;;;;;23.00;22.00;;;;;25.95;23.82;102067.25;5056927;28;45341;-74
2023/04/16 09:34:06;;;;;;;;;17.67;16.00;;;;;26.18;23.75;102092.13;5056898;28;45557;-74
2023/04/16 09:36:32;;;;;;;;;26.33;20.33;;;;;25.83;23.35;101998.97;5059055;28;45520;-77
2023/04/16 09:38:58;;;;;;;;;20.00;20.00;;;;;26.19;23.28;102103.88;5057290;28;45663;-75
2023/04/16 09:41:27;;;;;;;;;17.67;17.67;;;;;23.34;24.63;101826.09;5040953;28;45467;-77
2023/04/16 09:43:59;;;;;;;;;24.00;21.67;;;;;25.43;24.71;102115.28;5063014;28;45263;-77
2023/04/16 09:46:34;;;;;;;;;25.33;18.33;;;;;25.83;23.86;101984.47;5079088;28;45396;-73
2023/04/16 09:49:16;;;;;;;;;25.00;21.00;;;;;26.93;22.68;102079.63;5077947;27;46839;-73
2023/04/16 09:51:43;;;;;;;;;25.33;22.67;;;;;27.27;22.76;102080.25;5061577;27;45409;-74
2023/04/16 09:54:09;;;;;;;;;22.00;18.67;;;;;27.49;22.09;102100.66;5038280;28;45446;-71
2023/04/16 09:56:45;;;;;;;;;19.33;17.67;;;;;28.17;21.47;102106.09;5072742;28;45505;-72
2023/04/16 09:59:20;;;;;;;;;15.33;15.00;;;;;28.74;20.49;102090.22;5076211;27;46200;-73
2023/04/16 10:01:48;;;;;;;;;18.33;18.00;;;;;28.98;19.69;102079.38;5062845;27;46185;-75
2023/04/16 10:04:13;;;;;;;;;17.33;17.33;;;;;28.44;20.37;102051.94;5091036;27;45580;-73
2023/04/16 10:06:38;;;;;;;;;13.33;13.33;;;;;28.07;20.36;101995.59;5074931;27;45555;-72
2023/04/16 10:09:07;;;;;;;;;17.00;16.33;;;;;28.28;20.59;102063.50;5098458;27;45536;-74
2023/04/16 10:11:32;;;;;;;;;15.67;13.67;;;;;25.73;21.66;101969.44;5078635;27;45397;-74
2023/04/16 10:13:58;;;;;;;;;11.33;11.00;;;;;25.13;22.40;101987.75;5097519;27;45372;-73
2023/04/16 10:16:24;;;;;;;;;14.33;13.00;;;;;24.42;23.70;102079.00;5078948;27;45450;-73
2023/04/16 10:18:49;;;;;;;;;11.00;10.67;;;;;23.79;24.71;102102.66;5097704;27;46631;-73
2023/04/16 10:21:15;;;;;;;;;16.33;14.33;;;;;22.61;26.23;102119.41;5079803;27;45431;-74
2023/04/16 10:23:42;;;;;;;;;9.67;8.67;;;;;22.07;26.96;102107.03;5095866;27;45490;-74
2023/04/16 10:26:07;;;;;;;;;18.33;16.67;;;;;21.18;28.23;102051.00;5069363;27;45471;-74
2023/04/16 10:28:34;;;;;;;;;17.00;16.33;;;;;19.45;29.04;101867.72;5077922;28;46593;-75
2023/04/16 10:31:02;;;;;;;;;12.00;11.67;;;;;19.79;30.54;102068.94;5056756;27;45551;-72
2023/04/16 10:33:34;;;;;;;;;14.67;12.33;;;;;19.61;31.75;102088.03;5075941;27;45418;-73
2023/04/16 10:36:09;;;;;;;;;16.00;13.67;;;;;19.86;31.13;102113.13;5089612;27;45438;-74
2023/04/16 10:38:39;;;;;;;;;13.33;12.33;;;;;19.39;31.75;102113.81;5086390;27;46361;-77
2023/04/16 10:41:05;;;;;;;;;13.33;12.33;;;;;18.24;33.12;102009.53;5097935;27;45470;-77
2023/04/16 10:43:33;;;;;;;;;14.67;13.67;;;;;18.76;32.69;102117.94;5084704;27;45472;-76
2023/04/16 10:46:22;;;;;;;;;14.33;12.33;;;;;18.14;32.88;102008.81;5073489;27;45242;-75
2023/04/16 10:48:51;;;;;;;;;16.33;15.67;;;;;17.35;32.76;101899.66;5072787;27;46069;-77
2023/04/16 10:51:25;;;;;;;;;12.00;11.00;;;;;17.64;33.08;101988.88;5087729;27;45312;-73
2023/04/16 10:53:50;;;;;;;;;14.00;14.00;;;;;18.31;33.75;102117.41;5080001;27;45391;-77
2023/04/16 10:56:22;;;;;;;;;17.67;14.67;;;;;17.97;33.84;102098.53;5069788;27;45529;-76
2023/04/16 10:58:47;;;;;;;;;20.33;14.67;;;;;17.85;33.80;102097.97;5080947;27;45533;-77
2023/04/16 11:01:13;;;;;;;;;10.00;10.00;;;;;17.19;33.57;102041.97;5077759;27;46735;-73
2023/04/16 11:03:43;;;;;;;;;11.33;10.00;;;;;16.96;33.90;102049.69;5062183;28;45443;-74
2023/04/16 11:06:15;;;;;;;;;17.00;11.67;;;;;16.69;34.72;102064.88;5066374;27;45278;-76
2023/04/16 11:08:42;;;;;;;;;13.00;10.00;;;;;16.86;34.72;102094.59;5089327;27;45696;-74
2023/04/16 11:11:08;;;;;;;;;7.67;7.67;;;;;16.91;34.47;102089.59;5097774;27;45569;-75